Alden Manor, NY

1:19 PM EDT on September 02, 2014 (GMT -0400)
Floral Park | Change Station
CLOSE
Current Station
Personal Weather Station
Location: Floral Park, NY
Elevation: 98 ft
Nearby Weather Stations
Active Advisory: Air Quality Alert

Elev 98 ft 40.72 °N, 73.71 °W | Updated 6 seconds ago

Mostly Cloudy
Mostly Cloudy
91.3 °F
Feels Like 98 °F
N
0.0
Wind Variable Wind from North
Gusts 14.0 mph

Today
High -- | Low -- °F
--% Chance of Precip.
Yesterday
High -- | Low -- °F
Precip. -- in
6:22 AM 7:25 PM
First Quarter, 53% visible
Pressure 29.90 in
Visibility 10.0 miles
Clouds Few 5000 ft
Mostly Cloudy 25000 ft
Heat Index 98 °F
Dew Point 70 °F
Humidity 51%
Rainfall 0.00 in
Snow Depth Not available.
UV 5 out of 12
Pollen 9.20 out of 12
Air Quality Not available.
Flu Activity Not available.
METAR KJFK 021651Z 20012KT 10SM FEW050 BKN250 31/21 A2990 RMK AO2 SLP123 T03110211

More Conditions Fewer Conditions

Pressure 29.90 in
Visibility 10.0 miles
Clouds Few 5000 ft
Mostly Cloudy 25000 ft
Heat Index 98 °F
Dew Point 70 °F
Humidity 51%
Rainfall 0.00 in
Snow Depth Not available.
UV 5 out of 12
Pollen 9.20 out of 12
Air Quality Not available.
Flu Activity Not available.
METAR KJFK 021651Z 20012KT 10SM FEW050 BKN250 31/21 A2990 RMK AO2 SLP123 T03110211

More Conditions Fewer Conditions

10-Day Weather Forecast

Almanac

Astronomy

Sep. 02, 2014 Rise Set
Actual Time 6:22 AM EDT 7:25 PM EDT
Civil Twilight 5:54 AM EDT 7:53 PM EDT
Nautical Twilight 5:21 AM EDT 8:26 PM EDT
Astronomical Twilight 4:46 AM EDT 9:01 PM EDT
Moon 2:06 PM EDT No Moon Set
Length of Visible Light 13h 58m
Length of Day
13h 02m
Tomorrow will be 2m 36s shorter.
First Quarter, 53% of the Moon is Illuminated
Today
First Quarter
Sep 8
Full
Sep 15
Last Quarter
Sep 24
New
Oct 1
First Quarter

Today's Extremes

State Highs State Lows

Community

WunderPhotos

Upload Photos

1,749,719 photos uploaded!

WunderBlogs® & News

By Dr. Jeff Masters
Director of Meteorology, Weather Underground
By Kari Strenfel
Meteorologist, Weather Underground
By Christopher C. Burt
Weather Historian, Weather Underground
September 2, 2014
September 2, 2014
September 2, 2014

Nearby

Snow Depth

Station Depth Elevation
No new snow has been reported.

Earthquake Activity

City Distance Mag. Time & Date
No recent earthquake activity has been reported nearby.
Minimum magnitude displayed is 2.5.

Coastal Water Temperatures

Place Temperature
Sandy Hook, NJ 78.1 °F
The Battery, NY 75.0 °F
Bergen Point West Reach, NJ 75.0 °F
Kings Point, NY 75.9 °F

Nearby Weather Stations